Des Moines, Iowa
Current Conditions -  °F | °C
As of 8:54 AM on Saturday 25 Oct 2014 (Local Time) from KDSM Reporting Station
Clear Clear  
Wind Chill: 55°   Ceiling: Unl
Heat Index: 55°   Visibility: 10mi
Dew Point: 46°   Wind: 5mph
Humidity: 72%   Direction: 320°NW
Pressure: 30.08"   Gusts: NA
Location:  41.59°N, 93.61°W
Report Text: KDSM 251354Z 32004KT 10SM CLR 13/08 A3008 RMK AO2 SLP186 T01280078 $
Loading
Personal Weather Stations






























Interactive Weather Map New forecast layout! Learn more

10-Day Weather Forecast

Advertisements
Track Severe Weather on mobile